Terminal Aerodrome Forecast
Issued by NWS Anchorage, AK

Home | Current Version | Previous Version | Text Only | Print | Product List | Glossary On
Versions: 1 2 3 4 5 6 7 8 9 10 11 12 13 14 15 16 17 18 19 20 21 22 23 24 25 26 27 28 29 30 31 32 33 34 35 36 37 38
000
FTAK31 PANC 230539
TAFANC
TAF
PANC 230539Z 2306/2412 23005KT P6SM VCSH FEW050 BKN070
     FM231300 16004KT P6SM VCSH SCT035 BKN050
     FM232000 25006KT P6SM VCSH SCT050 BKN070
     FM240200 20007KT P6SM SCT070 BKN100=

USA.gov is the U.S. government's official web portal to all federal, state and local government web resources and services.